| time (UTC) | temp C | wind direction | speed KPH | gust KPH | rain 1hr cm | rain 24hr cm | rain mn cm | humidity % | barometer mb |
| 20260506204923 | 15 | 0.0 | 0.0 | 0.00 | 0.00 | 0.00 | 100 | 1006.7 | |
| 20260506203922 | 16 | 0.0 | 0.0 | 0.00 | 0.00 | 0.00 | 100 | 1006.7 | |
| 20260506202922 | 15 | 0.0 | 0.0 | 0.00 | 0.00 | 0.00 | 100 | 1006.6 | |
| 20260506201922 | 15 | 0.0 | 0.0 | 0.00 | 0.00 | 0.00 | 100 | 1007.8 | |
| 20260506200921 | 16 | 0.0 | 0.0 | 0.00 | 0.00 | 0.00 | 100 | 1006.7 | |
| 20260506195921 | 16 | 0.0 | 0.0 | 0.00 | 0.00 | 0.00 | 100 | 1006.9 | |
| 20260506194921 | 16 | 0.0 | 0.0 | 0.00 | 0.00 | 0.00 | 100 | 1006.7 | |
| 20260506193921 | 16 | 0.0 | 0.0 | 0.00 | 0.00 | 0.00 | 100 | 1006.5 | |
| 20260506192920 | 16 | 0.0 | 0.0 | 0.00 | 0.00 | 0.00 | 100 | 1006.8 | |
| 20260506191920 | 16 | 0.0 | 0.0 | 0.00 | 0.00 | 0.00 | 100 | 1007.2 | |
| 20260506190920 | 17 | 0.0 | 0.0 | 0.00 | 0.00 | 0.00 | 97 | 1006.3 | |
| 20260506185921 | 18 | 0.0 | 0.0 | 0.00 | 0.00 | 0.00 | 86 | 1006.0 | |
| 20260506184919 | 18 | 0.0 | 0.0 | 0.00 | 0.00 | 0.00 | 86 | 1005.5 | |
| 20260506183919 | 19 | 0.0 | 0.0 | 0.00 | 0.00 | 0.00 | 83 | 1005.4 | |
| 20260506182919 | 18 | 0.0 | 0.0 | 0.00 | 0.00 | 0.00 | 83 | 1005.4 | |
| 20260506181919 | 19 | 0.0 | 0.0 | 0.00 | 0.00 | 0.00 | 79 | 1005.4 | |
| 20260506180918 | 19 | 0.0 | 0.0 | 0.00 | 0.00 | 0.00 | 77 | 1005.3 | |
| 20260506175918 | 20 | 0.0 | 0.0 | 0.00 | 0.00 | 0.00 | 75 | 1005.4 | |
| 20260506174918 | 20 | 0.0 | 0.0 | 0.00 | 0.00 | 0.00 | 74 | 1005.4 | |
| 20260506173918 | 20 | 0.0 | 0.0 | 0.00 | 0.00 | 0.00 | 71 | 1005.7 | |
| 20260506172918 | 20 | 0.0 | 0.0 | 0.00 | 0.00 | 0.00 | 70 | 1006.3 | |
| 20260506171917 | 21 | 0.0 | 0.0 | 0.00 | 0.00 | 0.00 | 60 | 1006.0 | |
| 20260506170917 | 26 | 0.0 | 0.0 | 0.00 | 0.00 | 0.00 | 37 | 1005.3 | |
| 20260506165917 | 27 | 0.0 | 0.0 | 0.00 | 0.00 | 0.00 | 34 | 1005.0 | |
| 20260506164916 | 30 | 0.0 | 0.0 | 0.00 | 0.00 | 0.00 | 31 | 1004.9 | |
| 20260506163916 | 33 | 0.0 | 0.0 | 0.00 | 0.00 | 0.00 | 29 | 1005.0 | |
| 20260506162916 | 32 | 0.0 | 0.0 | 0.00 | 0.00 | 0.00 | 29 | 1005.0 | |
| 20260506161916 | 33 | 0.0 | 0.0 | 0.00 | 0.00 | 0.00 | 30 | 1005.0 | |
| 20260506160915 | 33 | 0.0 | 0.0 | 0.00 | 0.00 | 0.00 | 30 | 1005.1 | |
| 20260506155915 | 32 | 0.0 | 0.0 | 0.00 | 0.00 | 0.00 | 31 | 1005.1 | |
| 20260506154915 | 32 | 0.0 | 0.0 | 0.00 | 0.00 | 0.00 | 31 | 1005.1 | |
| 20260506153915 | 32 | 0.0 | 0.0 | 0.00 | 0.00 | 0.00 | 32 | 1005.2 | |
| 20260506152914 | 30 | 0.0 | 0.0 | 0.00 | 0.00 | 0.00 | 32 | 1005.4 | |
| 20260506151914 | 28 | 0.0 | 0.0 | 0.00 | 0.00 | 0.00 | 35 | 1005.4 | |
| 20260506150914 | 28 | 0.0 | 0.0 | 0.00 | 0.00 | 0.00 | 35 | 1005.5 | |
| 20260506145913 | 29 | 0.0 | 0.0 | 0.00 | 0.00 | 0.00 | 33 | 1005.5 | |
| 20260506144913 | 29 | 0.0 | 0.0 | 0.00 | 0.00 | 0.00 | 34 | 1005.7 | |
| 20260506143913 | 28 | 0.0 | 0.0 | 0.00 | 0.00 | 0.00 | 35 | 1005.7 | |
| 20260506142912 | 27 | 0.0 | 0.0 | 0.00 | 0.00 | 0.00 | 37 | 1005.9 | |
| 20260506141912 | 27 | 0.0 | 0.0 | 0.00 | 0.00 | 0.00 | 37 | 1005.9 | |
| 20260506140912 | 26 | 0.0 | 0.0 | 0.00 | 0.00 | 0.00 | 37 | 1005.8 | |
| 20260506135912 | 28 | 0.0 | 0.0 | 0.00 | 0.00 | 0.00 | 36 | 1005.7 | |
| 20260506134911 | 27 | 0.0 | 0.0 | 0.00 | 0.00 | 0.00 | 37 | 1005.9 | |
| 20260506132911 | 26 | 0.0 | 0.0 | 0.00 | 0.00 | 0.00 | 39 | 1005.9 | |
| 20260506131911 | 25 | 0.0 | 0.0 | 0.00 | 0.00 | 0.00 | 41 | 1006.0 | |
| 20260506130911 | 25 | 0.0 | 0.0 | 0.00 | 0.00 | 0.00 | 40 | 1006.0 | |
| 20260506125910 | 25 | 0.0 | 0.0 | 0.00 | 0.00 | 0.00 | 42 | 1006.1 | |
| 20260506124910 | 25 | 0.0 | 0.0 | 0.00 | 0.00 | 0.00 | 41 | 1006.0 | |
| 20260506123910 | 25 | 0.0 | 0.0 | 0.00 | 0.00 | 0.00 | 40 | 1006.0 | |
| 20260506122909 | 25 | 0.0 | 0.0 | 0.00 | 0.00 | 0.00 | 40 | 1005.9 | |
| 20260506121909 | 23 | 0.0 | 0.0 | 0.00 | 0.00 | 0.00 | 43 | 1006.1 | |
| 20260506120909 | 25 | 0.0 | 0.0 | 0.00 | 0.00 | 0.00 | 42 | 1006.0 | |
| 20260506115909 | 25 | 0.0 | 0.0 | 0.00 | 0.00 | 0.00 | 43 | 1006.0 | |
| 20260506114909 | 25 | 0.0 | 0.0 | 0.00 | 0.00 | 0.00 | 41 | 1005.8 | |
| 20260506113908 | 25 | 0.0 | 0.0 | 0.00 | 0.00 | 0.00 | 41 | 1005.9 | |
| 20260506112908 | 25 | 0.0 | 0.0 | 0.00 | 0.00 | 0.00 | 43 | 1005.8 | |
| 20260506111908 | 23 | 0.0 | 0.0 | 0.00 | 0.00 | 0.00 | 45 | 1005.8 | |
| 20260506110907 | 25 | 0.0 | 0.0 | 0.00 | 0.00 | 0.00 | 45 | 1005.7 | |
| 20260506105907 | 23 | 0.0 | 0.0 | 0.00 | 0.00 | 0.00 | 48 | 1005.8 | |
| 20260506104907 | 23 | 0.0 | 0.0 | 0.00 | 0.00 | 0.00 | 50 | 1005.9 | |
| 20260506103907 | 21 | 0.0 | 0.0 | 0.00 | 0.00 | 0.00 | 52 | 1006.1 | |
| 20260506102906 | 22 | 0.0 | 0.0 | 0.00 | 0.00 | 0.00 | 53 | 1006.0 | |
| 20260506101906 | 21 | 0.0 | 0.0 | 0.00 | 0.00 | 0.00 | 55 | 1006.0 | |
| 20260506100906 | 21 | 0.0 | 0.0 | 0.00 | 0.00 | 0.00 | 55 | 1006.1 | |
| 20260506095906 | 21 | 0.0 | 0.0 | 0.00 | 0.00 | 0.00 | 55 | 1006.1 | |
| 20260506094905 | 21 | 0.0 | 0.0 | 0.00 | 0.00 | 0.00 | 56 | 1006.1 | |
| 20260506093905 | 21 | 0.0 | 0.0 | 0.00 | 0.00 | 0.00 | 55 | 1006.1 | |
| 20260506092905 | 20 | 0.0 | 0.0 | 0.00 | 0.00 | 0.00 | 58 | 1006.0 | |
| 20260506091904 | 20 | 0.0 | 0.0 | 0.00 | 0.00 | 0.00 | 58 | 1006.1 | |
| 20260506090904 | 20 | 0.0 | 0.0 | 0.00 | 0.00 | 0.00 | 58 | 1006.1 | |
| 20260506085904 | 21 | 0.0 | 0.0 | 0.00 | 0.00 | 0.00 | 58 | 1006.2 | |
| 20260506084904 | 20 | 0.0 | 0.0 | 0.00 | 0.00 | 0.00 | 62 | 1005.8 | |
| 20260506083903 | 21 | 0.0 | 0.0 | 0.00 | 0.00 | 0.00 | 60 | 1005.7 | |
| 20260506082903 | 20 | 0.0 | 0.0 | 0.00 | 0.00 | 0.00 | 65 | 1005.7 | |
| 20260506081903 | 20 | 0.0 | 0.0 | 0.00 | 0.00 | 0.00 | 65 | 1005.6 | |
| 20260506080903 | 19 | 0.0 | 0.0 | 0.00 | 0.00 | 0.00 | 68 | 1005.8 | |
| 20260506072902 | 18 | 0.0 | 0.0 | 0.00 | 0.00 | 0.00 | 70 | 1005.7 | |
| 20260506071902 | 18 | 0.0 | 0.0 | 0.00 | 0.00 | 0.00 | 69 | 1005.7 | |
| 20260506070901 | 18 | 0.0 | 0.0 | 0.00 | 0.00 | 0.00 | 68 | 1005.4 | |
| 20260506061900 | 17 | 0.0 | 0.0 | 0.00 | 0.00 | 0.00 | 77 | 1005.3 | |
| 20260506060859 | 16 | 0.0 | 0.0 | 0.00 | 0.00 | 0.00 | 76 | 1005.0 | |
| 20260506050857 | 15 | 0.0 | 0.0 | 0.00 | 0.00 | 0.00 | 77 | 1004.8 | |
| 20260506044857 | 15 | 0.0 | 0.0 | 0.00 | 0.00 | 0.00 | 79 | 1004.7 | |
| 20260506043856 | 14 | 0.0 | 0.0 | 0.00 | 0.00 | 0.00 | 81 | 1004.6 | |
| 20260506042856 | 13 | 0.0 | 0.0 | 0.00 | 0.00 | 0.00 | 82 | 1004.7 | |
| 20260506041856 | 13 | 0.0 | 0.0 | 0.00 | 0.00 | 0.00 | 84 | 1004.7 | |
| 20260506040855 | 13 | 0.0 | 0.0 | 0.00 | 0.00 | 0.00 | 87 | 1004.7 | |
| 20260506035855 | 12 | 0.0 | 0.0 | 0.00 | 0.00 | 0.00 | 89 | 1004.7 | |
| 20260506034854 | 12 | 0.0 | 0.0 | 0.00 | 0.00 | 0.00 | 89 | 1004.7 | |
| 20260506033854 | 12 | 0.0 | 0.0 | 0.00 | 0.00 | 0.00 | 89 | 1004.7 | |
| 20260506032854 | 12 | 0.0 | 0.0 | 0.00 | 0.00 | 0.00 | 90 | 1004.9 | |
| 20260506031853 | 12 | 0.0 | 0.0 | 0.00 | 0.00 | 0.00 | 92 | 1004.9 | |
| 20260506030853 | 11 | 0.0 | 0.0 | 0.00 | 0.00 | 0.00 | 93 | 1004.9 | |
| 20260506025853 | 11 | 0.0 | 0.0 | 0.00 | 0.00 | 0.00 | 95 | 1004.9 | |
| 20260506024853 | 11 | 0.0 | 0.0 | 0.00 | 0.00 | 0.00 | 96 | 1005.0 | |
| 20260506023852 | 11 | 0.0 | 0.0 | 0.00 | 0.00 | 0.00 | 97 | 1005.0 | |
| 20260506022852 | 11 | 0.0 | 0.0 | 0.00 | 0.00 | 0.00 | 98 | 1005.0 | |
| 20260506021852 | 11 | 0.0 | 0.0 | 0.00 | 0.00 | 0.00 | 98 | 1005.0 | |
| 20260506020852 | 11 | 0.0 | 0.0 | 0.00 | 0.00 | 0.00 | 98 | 1005.1 | |
| 20260506015851 | 11 | 0.0 | 0.0 | 0.00 | 0.00 | 0.00 | 97 | 1005.0 | |
| 20260506014851 | 11 | 0.0 | 0.0 | 0.00 | 0.00 | 0.00 | 98 | 1005.0 | |
| 20260506013851 | 11 | 0.0 | 0.0 | 0.00 | 0.00 | 0.00 | 98 | 1005.0 | |
| 20260506012850 | 12 | 0.0 | 0.0 | 0.00 | 0.00 | 0.00 | 98 | 1005.0 | |
| 20260506011850 | 12 | 0.0 | 0.0 | 0.00 | 0.00 | 0.00 | 99 | 1004.9 | |
| 20260506010850 | 12 | 0.0 | 0.0 | 0.00 | 0.00 | 0.00 | 97 | 1004.9 | |
| 20260506005850 | 12 | 0.0 | 0.0 | 0.00 | 0.00 | 0.00 | 96 | 1005.0 | |
| 20260506004850 | 12 | 0.0 | 0.0 | 0.00 | 0.00 | 0.00 | 95 | 1005.0 | |
| 20260506003849 | 12 | 0.0 | 0.0 | 0.00 | 0.00 | 0.00 | 95 | 1005.2 | |
| 20260506002849 | 12 | 0.0 | 0.0 | 0.00 | 0.00 | 0.00 | 93 | 1005.2 | |
| 20260506001849 | 12 | 0.0 | 0.0 | 0.00 | 0.00 | 0.00 | 93 | 1005.2 | |
| 20260506000848 | 12 | 0.0 | 0.0 | 0.00 | 0.00 | 0.00 | 91 | 1005.3 | |
| 20260505235848 | 12 | 0.0 | 0.0 | 0.00 | 0.00 | 0.00 | 89 | 1005.4 | |
| 20260505234848 | 12 | 0.0 | 0.0 | 0.00 | 0.00 | 0.00 | 88 | 1005.3 | |
| 20260505233848 | 13 | 0.0 | 0.0 | 0.00 | 0.00 | 0.00 | 86 | 1005.4 | |
| 20260505232847 | 13 | 0.0 | 0.0 | 0.00 | 0.00 | 0.00 | 85 | 1005.5 | |
| 20260505231847 | 13 | 0.0 | 0.0 | 0.00 | 0.00 | 0.00 | 84 | 1005.7 | |
| 20260505230847 | 13 | 0.0 | 0.0 | 0.00 | 0.00 | 0.00 | 82 | 1005.7 | |
| 20260505225847 | 13 | 0.0 | 0.0 | 0.00 | 0.00 | 0.00 | 80 | 1005.8 | |
| 20260505224847 | 14 | 0.0 | 0.0 | 0.00 | 0.00 | 0.00 | 79 | 1005.8 | |
| 20260505223846 | 15 | 0.0 | 0.0 | 0.00 | 0.00 | 0.00 | 78 | 1005.7 | |
| 20260505222846 | 15 | 0.0 | 0.0 | 0.00 | 0.00 | 0.00 | 75 | 1005.9 | |
| 20260505221846 | 15 | 0.0 | 0.0 | 0.00 | 0.00 | 0.00 | 75 | 1006.0 | |
| 20260505220846 | 15 | 0.0 | 0.0 | 0.00 | 0.00 | 0.00 | 75 | 1006.0 | |
| 20260505215845 | 16 | 0.0 | 0.0 | 0.00 | 0.00 | 0.00 | 75 | 1006.2 | |
| 20260505214845 | 16 | 0.0 | 0.0 | 0.00 | 0.00 | 0.00 | 73 | 1006.3 | |
| 20260505213845 | 16 | 0.0 | 0.0 | 0.00 | 0.00 | 0.00 | 73 | 1006.3 | |
| 20260505212844 | 16 | 0.0 | 0.0 | 0.00 | 0.00 | 0.00 | 72 | 1006.3 | |
| 20260505211844 | 17 | 0.0 | 0.0 | 0.00 | 0.00 | 0.00 | 70 | 1006.3 | |
| 20260505210844 | 17 | 0.0 | 0.0 | 0.00 | 0.00 | 0.00 | 71 | 1006.3 | |
| 20260505205843 | 17 | 0.0 | 0.0 | 0.00 | 0.00 | 0.00 | 71 | 1006.3 |